sensor_id;sensor_type;location;lat;lon;timestamp;P1;durP1;ratioP1;P2;durP2;ratioP2
51836;SDS011;38941;53.254;6.600;2023-04-01T00:01:09;13.93;;;6.03;;
51836;SDS011;38941;53.254;6.600;2023-04-01T00:03:13;10.77;;;5.15;;
51836;SDS011;38941;53.254;6.600;2023-04-01T00:05:14;9.27;;;4.75;;
51836;SDS011;38941;53.254;6.600;2023-04-01T00:07:16;12.38;;;5.90;;
51836;SDS011;38941;53.254;6.600;2023-04-01T00:09:17;11.77;;;6.18;;
51836;SDS011;38941;53.254;6.600;2023-04-01T00:11:18;8.63;;;4.13;;
51836;SDS011;38941;53.254;6.600;2023-04-01T00:13:19;9.32;;;4.90;;
51836;SDS011;38941;53.254;6.600;2023-04-01T00:15:21;10.73;;;5.80;;
51836;SDS011;38941;53.254;6.600;2023-04-01T00:17:21;7.53;;;4.75;;
51836;SDS011;38941;53.254;6.600;2023-04-01T00:19:24;9.27;;;4.70;;
51836;SDS011;38941;53.254;6.600;2023-04-01T00:21:25;5.90;;;4.35;;
51836;SDS011;38941;53.254;6.600;2023-04-01T00:23:26;7.60;;;4.22;;
51836;SDS011;38941;53.254;6.600;2023-04-01T00:25:30;6.95;;;3.42;;
51836;SDS011;38941;53.254;6.600;2023-04-01T00:27:31;8.30;;;3.72;;
51836;SDS011;38941;53.254;6.600;2023-04-01T00:29:32;8.48;;;3.83;;
51836;SDS011;38941;53.254;6.600;2023-04-01T00:31:32;10.40;;;4.05;;
51836;SDS011;38941;53.254;6.600;2023-04-01T00:33:33;9.80;;;3.90;;
51836;SDS011;38941;53.254;6.600;2023-04-01T00:35:34;5.95;;;3.67;;
51836;SDS011;38941;53.254;6.600;2023-04-01T00:37:38;6.57;;;3.92;;
51836;SDS011;38941;53.254;6.600;2023-04-01T00:39:39;9.13;;;4.05;;
51836;SDS011;38941;53.254;6.600;2023-04-01T00:41:40;5.55;;;3.90;;
51836;SDS011;38941;53.254;6.600;2023-04-01T00:43:41;7.30;;;4.30;;
51836;SDS011;38941;53.254;6.600;2023-04-01T00:45:43;7.53;;;4.03;;
51836;SDS011;38941;53.254;6.600;2023-04-01T00:47:44;5.05;;;3.38;;
51836;SDS011;38941;53.254;6.600;2023-04-01T00:49:46;6.65;;;3.45;;
51836;SDS011;38941;53.254;6.600;2023-04-01T00:51:50;5.63;;;3.65;;
51836;SDS011;38941;53.254;6.600;2023-04-01T00:53:54;9.15;;;3.58;;
51836;SDS011;38941;53.254;6.600;2023-04-01T00:56:03;5.90;;;3.72;;
51836;SDS011;38941;53.254;6.600;2023-04-01T00:58:09;6.40;;;3.70;;
51836;SDS011;38941;53.254;6.600;2023-04-01T01:00:14;9.93;;;4.45;;
51836;SDS011;38941;53.254;6.600;2023-04-01T01:02:17;6.03;;;3.90;;
51836;SDS011;38941;53.254;6.600;2023-04-01T01:10:52;6.55;;;3.92;;
51836;SDS011;38941;53.254;6.600;2023-04-01T01:13:14;7.60;;;4.25;;
51836;SDS011;38941;53.254;6.600;2023-04-01T01:25:24;6.68;;;4.05;;
51836;SDS011;38941;53.254;6.600;2023-04-01T01:27:29;10.07;;;4.32;;
51836;SDS011;38941;53.254;6.600;2023-04-01T01:36:40;7.10;;;4.55;;
51836;SDS011;38941;53.254;6.600;2023-04-01T01:38:45;9.85;;;5.05;;
51836;SDS011;38941;53.254;6.600;2023-04-01T01:40:48;7.07;;;4.38;;
51836;SDS011;38941;53.254;6.600;2023-04-01T01:42:57;5.75;;;4.13;;
51836;SDS011;38941;53.254;6.600;2023-04-01T01:45:04;7.00;;;4.53;;
51836;SDS011;38941;53.254;6.600;2023-04-01T01:47:07;7.20;;;4.20;;
51836;SDS011;38941;53.254;6.600;2023-04-01T01:49:09;7.63;;;4.65;;
51836;SDS011;38941;53.254;6.600;2023-04-01T01:51:12;6.63;;;4.28;;
51836;SDS011;38941;53.254;6.600;2023-04-01T01:53:13;5.55;;;3.70;;
51836;SDS011;38941;53.254;6.600;2023-04-01T01:55:34;8.80;;;4.60;;
51836;SDS011;38941;53.254;6.600;2023-04-01T01:57:36;7.90;;;4.60;;
51836;SDS011;38941;53.254;6.600;2023-04-01T01:59:39;7.35;;;4.57;;
51836;SDS011;38941;53.254;6.600;2023-04-01T02:01:42;7.03;;;4.45;;
51836;SDS011;38941;53.254;6.600;2023-04-01T02:03:46;10.07;;;4.75;;
51836;SDS011;38941;53.254;6.600;2023-04-01T02:05:49;13.30;;;4.85;;
51836;SDS011;38941;53.254;6.600;2023-04-01T02:08:05;6.68;;;4.25;;
51836;SDS011;38941;53.254;6.600;2023-04-01T02:10:13;8.30;;;4.80;;
51836;SDS011;38941;53.254;6.600;2023-04-01T02:12:16;10.15;;;4.68;;
51836;SDS011;38941;53.254;6.600;2023-04-01T02:14:19;8.30;;;4.68;;
51836;SDS011;38941;53.254;6.600;2023-04-01T02:16:36;9.02;;;5.60;;
51836;SDS011;38941;53.254;6.600;2023-04-01T02:18:43;8.80;;;5.05;;
51836;SDS011;38941;53.254;6.600;2023-04-01T02:20:48;8.32;;;5.00;;
51836;SDS011;38941;53.254;6.600;2023-04-01T02:22:51;11.20;;;5.47;;
51836;SDS011;38941;53.254;6.600;2023-04-01T02:24:57;11.23;;;5.25;;
51836;SDS011;38941;53.254;6.600;2023-04-01T02:26:59;7.97;;;5.00;;
51836;SDS011;38941;53.254;6.600;2023-04-01T02:29:00;9.77;;;5.20;;
51836;SDS011;38941;53.254;6.600;2023-04-01T02:31:04;8.90;;;4.82;;
51836;SDS011;38941;53.254;6.600;2023-04-01T02:33:07;9.82;;;5.00;;
51836;SDS011;38941;53.254;6.600;2023-04-01T02:35:11;10.50;;;5.53;;
51836;SDS011;38941;53.254;6.600;2023-04-01T02:37:15;8.45;;;4.50;;
51836;SDS011;38941;53.254;6.600;2023-04-01T02:39:16;8.60;;;5.45;;
51836;SDS011;38941;53.254;6.600;2023-04-01T02:41:18;9.45;;;4.95;;
51836;SDS011;38941;53.254;6.600;2023-04-01T02:43:18;8.40;;;4.75;;
51836;SDS011;38941;53.254;6.600;2023-04-01T02:45:19;8.50;;;4.93;;
51836;SDS011;38941;53.254;6.600;2023-04-01T02:47:20;7.97;;;4.82;;
51836;SDS011;38941;53.254;6.600;2023-04-01T02:49:21;8.80;;;5.00;;
51836;SDS011;38941;53.254;6.600;2023-04-01T02:51:22;8.82;;;4.65;;
51836;SDS011;38941;53.254;6.600;2023-04-01T02:53:22;8.05;;;4.93;;
51836;SDS011;38941;53.254;6.600;2023-04-01T02:55:23;10.88;;;5.82;;
51836;SDS011;38941;53.254;6.600;2023-04-01T02:57:24;12.02;;;5.47;;
51836;SDS011;38941;53.254;6.600;2023-04-01T02:59:25;9.32;;;5.95;;
51836;SDS011;38941;53.254;6.600;2023-04-01T03:01:27;11.13;;;6.28;;
51836;SDS011;38941;53.254;6.600;2023-04-01T03:03:28;10.20;;;5.78;;
51836;SDS011;38941;53.254;6.600;2023-04-01T03:05:29;11.32;;;6.40;;
51836;SDS011;38941;53.254;6.600;2023-04-01T03:07:30;10.68;;;6.35;;
51836;SDS011;38941;53.254;6.600;2023-04-01T03:09:31;12.75;;;6.88;;
51836;SDS011;38941;53.254;6.600;2023-04-01T03:11:32;14.85;;;6.78;;
51836;SDS011;38941;53.254;6.600;2023-04-01T03:13:32;12.90;;;7.45;;
51836;SDS011;38941;53.254;6.600;2023-04-01T03:15:33;14.98;;;7.28;;
51836;SDS011;38941;53.254;6.600;2023-04-01T03:17:34;12.90;;;7.03;;
51836;SDS011;38941;53.254;6.600;2023-04-01T03:19:35;12.93;;;6.85;;
51836;SDS011;38941;53.254;6.600;2023-04-01T03:21:36;13.52;;;7.10;;
51836;SDS011;38941;53.254;6.600;2023-04-01T03:23:36;14.82;;;7.72;;
51836;SDS011;38941;53.254;6.600;2023-04-01T03:25:37;17.05;;;7.32;;
51836;SDS011;38941;53.254;6.600;2023-04-01T03:27:38;12.32;;;6.60;;
51836;SDS011;38941;53.254;6.600;2023-04-01T03:29:38;11.32;;;6.63;;
51836;SDS011;38941;53.254;6.600;2023-04-01T03:31:39;14.18;;;7.25;;
51836;SDS011;38941;53.254;6.600;2023-04-01T03:33:40;11.23;;;6.32;;
51836;SDS011;38941;53.254;6.600;2023-04-01T03:35:41;13.00;;;6.50;;
51836;SDS011;38941;53.254;6.600;2023-04-01T03:37:41;10.32;;;6.50;;
51836;SDS011;38941;53.254;6.600;2023-04-01T03:39:42;11.90;;;7.07;;
51836;SDS011;38941;53.254;6.600;2023-04-01T03:41:43;15.27;;;6.63;;
51836;SDS011;38941;53.254;6.600;2023-04-01T03:43:43;12.52;;;7.43;;
51836;SDS011;38941;53.254;6.600;2023-04-01T03:45:46;15.65;;;7.43;;
51836;SDS011;38941;53.254;6.600;2023-04-01T03:47:48;12.00;;;6.28;;
51836;SDS011;38941;53.254;6.600;2023-04-01T03:49:49;14.23;;;6.93;;
51836;SDS011;38941;53.254;6.600;2023-04-01T03:51:50;11.40;;;6.80;;
51836;SDS011;38941;53.254;6.600;2023-04-01T03:53:50;10.38;;;6.25;;
51836;SDS011;38941;53.254;6.600;2023-04-01T03:55:51;12.40;;;7.05;;
51836;SDS011;38941;53.254;6.600;2023-04-01T03:57:52;11.68;;;7.10;;
51836;SDS011;38941;53.254;6.600;2023-04-01T03:59:53;13.38;;;7.63;;
51836;SDS011;38941;53.254;6.600;2023-04-01T04:01:55;13.77;;;6.70;;
51836;SDS011;38941;53.254;6.600;2023-04-01T04:03:57;11.38;;;6.90;;
51836;SDS011;38941;53.254;6.600;2023-04-01T04:05:59;10.90;;;6.70;;
51836;SDS011;38941;53.254;6.600;2023-04-01T04:07:59;14.93;;;6.82;;
51836;SDS011;38941;53.254;6.600;2023-04-01T04:10:00;14.18;;;7.40;;
51836;SDS011;38941;53.254;6.600;2023-04-01T04:12:01;12.23;;;7.10;;
51836;SDS011;38941;53.254;6.600;2023-04-01T04:14:02;13.82;;;7.20;;
51836;SDS011;38941;53.254;6.600;2023-04-01T04:16:03;13.23;;;7.93;;
51836;SDS011;38941;53.254;6.600;2023-04-01T04:18:04;12.38;;;6.72;;
51836;SDS011;38941;53.254;6.600;2023-04-01T04:20:05;11.55;;;6.90;;
51836;SDS011;38941;53.254;6.600;2023-04-01T04:22:08;13.20;;;7.00;;
51836;SDS011;38941;53.254;6.600;2023-04-01T04:24:09;14.23;;;7.50;;
51836;SDS011;38941;53.254;6.600;2023-04-01T04:26:11;17.05;;;9.20;;
51836;SDS011;38941;53.254;6.600;2023-04-01T04:28:13;16.77;;;7.85;;
51836;SDS011;38941;53.254;6.600;2023-04-01T04:30:14;11.00;;;6.75;;
51836;SDS011;38941;53.254;6.600;2023-04-01T04:32:15;13.02;;;6.45;;
51836;SDS011;38941;53.254;6.600;2023-04-01T04:34:15;14.15;;;7.18;;
51836;SDS011;38941;53.254;6.600;2023-04-01T04:36:18;14.63;;;7.45;;
51836;SDS011;38941;53.254;6.600;2023-04-01T04:38:21;16.98;;;7.10;;
51836;SDS011;38941;53.254;6.600;2023-04-01T04:40:22;15.23;;;7.00;;
51836;SDS011;38941;53.254;6.600;2023-04-01T04:42:23;15.90;;;8.15;;
51836;SDS011;38941;53.254;6.600;2023-04-01T04:44:23;15.75;;;6.97;;
51836;SDS011;38941;53.254;6.600;2023-04-01T04:46:24;15.38;;;8.15;;
51836;SDS011;38941;53.254;6.600;2023-04-01T04:48:25;14.60;;;7.88;;
51836;SDS011;38941;53.254;6.600;2023-04-01T04:50:26;14.20;;;8.20;;
51836;SDS011;38941;53.254;6.600;2023-04-01T04:52:27;15.50;;;8.05;;
51836;SDS011;38941;53.254;6.600;2023-04-01T04:54:27;13.25;;;7.97;;
51836;SDS011;38941;53.254;6.600;2023-04-01T04:56:29;12.25;;;7.72;;
51836;SDS011;38941;53.254;6.600;2023-04-01T04:58:30;20.27;;;8.70;;
51836;SDS011;38941;53.254;6.600;2023-04-01T05:00:32;16.17;;;8.68;;
51836;SDS011;38941;53.254;6.600;2023-04-01T05:02:33;15.25;;;8.65;;
51836;SDS011;38941;53.254;6.600;2023-04-01T05:04:35;17.75;;;9.05;;
51836;SDS011;38941;53.254;6.600;2023-04-01T05:06:36;16.25;;;8.20;;
51836;SDS011;38941;53.254;6.600;2023-04-01T05:08:37;14.32;;;8.80;;
51836;SDS011;38941;53.254;6.600;2023-04-01T05:10:40;17.05;;;9.48;;
51836;SDS011;38941;53.254;6.600;2023-04-01T05:12:40;18.05;;;9.00;;
51836;SDS011;38941;53.254;6.600;2023-04-01T05:14:41;19.25;;;9.05;;
51836;SDS011;38941;53.254;6.600;2023-04-01T05:16:42;16.92;;;9.15;;
51836;SDS011;38941;53.254;6.600;2023-04-01T05:18:43;19.33;;;9.50;;
51836;SDS011;38941;53.254;6.600;2023-04-01T05:20:51;19.55;;;9.32;;
51836;SDS011;38941;53.254;6.600;2023-04-01T05:24:57;22.70;;;10.35;;
51836;SDS011;38941;53.254;6.600;2023-04-01T05:26:58;17.58;;;9.18;;
51836;SDS011;38941;53.254;6.600;2023-04-01T05:28:59;19.40;;;9.27;;
51836;SDS011;38941;53.254;6.600;2023-04-01T05:31:00;16.55;;;8.88;;
51836;SDS011;38941;53.254;6.600;2023-04-01T05:33:01;16.52;;;8.85;;
51836;SDS011;38941;53.254;6.600;2023-04-01T05:35:02;17.20;;;9.52;;
51836;SDS011;38941;53.254;6.600;2023-04-01T05:37:03;17.58;;;9.95;;
51836;SDS011;38941;53.254;6.600;2023-04-01T05:39:04;14.88;;;8.75;;
51836;SDS011;38941;53.254;6.600;2023-04-01T05:41:05;21.00;;;9.13;;
51836;SDS011;38941;53.254;6.600;2023-04-01T05:43:06;16.38;;;8.73;;
51836;SDS011;38941;53.254;6.600;2023-04-01T05:45:06;16.05;;;9.00;;
51836;SDS011;38941;53.254;6.600;2023-04-01T05:47:08;16.02;;;8.05;;
51836;SDS011;38941;53.254;6.600;2023-04-01T05:49:09;16.13;;;8.55;;
51836;SDS011;38941;53.254;6.600;2023-04-01T05:51:15;14.32;;;8.73;;
51836;SDS011;38941;53.254;6.600;2023-04-01T05:53:16;14.23;;;7.75;;
51836;SDS011;38941;53.254;6.600;2023-04-01T05:55:17;13.52;;;7.72;;
51836;SDS011;38941;53.254;6.600;2023-04-01T05:57:18;15.15;;;7.45;;
51836;SDS011;38941;53.254;6.600;2023-04-01T05:59:19;15.52;;;8.25;;
51836;SDS011;38941;53.254;6.600;2023-04-01T06:01:20;15.38;;;7.95;;
51836;SDS011;38941;53.254;6.600;2023-04-01T06:03:21;14.18;;;8.13;;
51836;SDS011;38941;53.254;6.600;2023-04-01T06:05:22;15.32;;;7.60;;
51836;SDS011;38941;53.254;6.600;2023-04-01T06:07:25;12.77;;;7.75;;
51836;SDS011;38941;53.254;6.600;2023-04-01T06:09:29;14.90;;;7.13;;
51836;SDS011;38941;53.254;6.600;2023-04-01T06:11:34;14.90;;;8.60;;
51836;SDS011;38941;53.254;6.600;2023-04-01T06:16:20;16.42;;;9.00;;
51836;SDS011;38941;53.254;6.600;2023-04-01T06:18:45;19.15;;;8.93;;
51836;SDS011;38941;53.254;6.600;2023-04-01T06:30:33;21.00;;;10.15;;
51836;SDS011;38941;53.254;6.600;2023-04-01T06:34:59;19.15;;;10.30;;
51836;SDS011;38941;53.254;6.600;2023-04-01T06:56:04;17.17;;;9.82;;
51836;SDS011;38941;53.254;6.600;2023-04-01T07:00:43;19.48;;;9.52;;
51836;SDS011;38941;53.254;6.600;2023-04-01T07:02:50;24.00;;;11.38;;
51836;SDS011;38941;53.254;6.600;2023-04-01T07:04:59;17.00;;;10.13;;
51836;SDS011;38941;53.254;6.600;2023-04-01T07:07:03;20.63;;;11.13;;
51836;SDS011;38941;53.254;6.600;2023-04-01T07:09:12;26.90;;;12.60;;
51836;SDS011;38941;53.254;6.600;2023-04-01T07:11:27;20.63;;;10.45;;
51836;SDS011;38941;53.254;6.600;2023-04-01T07:15:40;18.67;;;10.65;;
51836;SDS011;38941;53.254;6.600;2023-04-01T07:17:43;21.25;;;11.20;;
51836;SDS011;38941;53.254;6.600;2023-04-01T07:19:49;21.52;;;11.57;;
51836;SDS011;38941;53.254;6.600;2023-04-01T07:24:05;19.27;;;10.30;;
51836;SDS011;38941;53.254;6.600;2023-04-01T07:26:18;18.23;;;9.98;;
51836;SDS011;38941;53.254;6.600;2023-04-01T07:28:21;18.58;;;10.23;;
51836;SDS011;38941;53.254;6.600;2023-04-01T07:30:22;19.85;;;11.57;;
51836;SDS011;38941;53.254;6.600;2023-04-01T07:32:40;18.67;;;10.18;;
51836;SDS011;38941;53.254;6.600;2023-04-01T07:37:14;20.08;;;10.80;;
51836;SDS011;38941;53.254;6.600;2023-04-01T07:39:37;18.38;;;9.93;;
51836;SDS011;38941;53.254;6.600;2023-04-01T07:44:00;20.52;;;10.38;;
51836;SDS011;38941;53.254;6.600;2023-04-01T07:46:28;19.08;;;10.40;;
51836;SDS011;38941;53.254;6.600;2023-04-01T07:48:52;15.60;;;9.33;;
51836;SDS011;38941;53.254;6.600;2023-04-01T07:51:01;17.52;;;9.43;;
51836;SDS011;38941;53.254;6.600;2023-04-01T07:57:49;15.23;;;8.45;;
51836;SDS011;38941;53.254;6.600;2023-04-01T08:06:37;14.68;;;8.15;;
51836;SDS011;38941;53.254;6.600;2023-04-01T08:08:48;14.10;;;7.50;;
51836;SDS011;38941;53.254;6.600;2023-04-01T08:13:33;15.93;;;7.82;;
51836;SDS011;38941;53.254;6.600;2023-04-01T08:15:46;14.00;;;8.40;;
51836;SDS011;38941;53.254;6.600;2023-04-01T08:25:16;14.43;;;9.07;;
51836;SDS011;38941;53.254;6.600;2023-04-01T08:30:06;13.65;;;7.97;;
51836;SDS011;38941;53.254;6.600;2023-04-01T08:32:12;14.77;;;8.02;;
51836;SDS011;38941;53.254;6.600;2023-04-01T08:34:18;13.48;;;7.75;;
51836;SDS011;38941;53.254;6.600;2023-04-01T08:36:29;10.77;;;7.13;;
51836;SDS011;38941;53.254;6.600;2023-04-01T08:41:01;7.47;;;4.63;;
51836;SDS011;38941;53.254;6.600;2023-04-01T08:45:48;5.47;;;3.45;;
51836;SDS011;38941;53.254;6.600;2023-04-01T08:53:03;4.82;;;2.58;;
51836;SDS011;38941;53.254;6.600;2023-04-01T09:00:10;4.68;;;3.20;;
51836;SDS011;38941;53.254;6.600;2023-04-01T09:02:38;6.43;;;2.80;;
51836;SDS011;38941;53.254;6.600;2023-04-01T09:14:06;5.55;;;2.55;;
51836;SDS011;38941;53.254;6.600;2023-04-01T09:29:02;2.53;;;1.27;;
51836;SDS011;38941;53.254;6.600;2023-04-01T09:35:58;2.90;;;1.70;;
51836;SDS011;38941;53.254;6.600;2023-04-01T09:38:20;2.67;;;1.70;;
51836;SDS011;38941;53.254;6.600;2023-04-01T09:45:26;3.45;;;1.50;;
51836;SDS011;38941;53.254;6.600;2023-04-01T09:47:42;3.53;;;1.67;;
51836;SDS011;38941;53.254;6.600;2023-04-01T10:01:51;2.35;;;1.42;;
51836;SDS011;38941;53.254;6.600;2023-04-01T10:19:16;4.13;;;1.70;;
51836;SDS011;38941;53.254;6.600;2023-04-01T10:42:54;1.65;;;1.10;;
51836;SDS011;38941;53.254;6.600;2023-04-01T10:48:12;1.40;;;1.20;;
51836;SDS011;38941;53.254;6.600;2023-04-01T10:57:34;1.70;;;1.35;;
51836;SDS011;38941;53.254;6.600;2023-04-01T11:02:15;1.67;;;1.20;;
51836;SDS011;38941;53.254;6.600;2023-04-01T11:30:49;3.85;;;1.83;;
51836;SDS011;38941;53.254;6.600;2023-04-01T11:44:21;4.13;;;1.00;;
51836;SDS011;38941;53.254;6.600;2023-04-01T11:46:37;4.20;;;1.17;;
51836;SDS011;38941;53.254;6.600;2023-04-01T11:53:45;0.95;;;0.63;;
51836;SDS011;38941;53.254;6.600;2023-04-01T12:12:37;1.63;;;0.90;;
51836;SDS011;38941;53.254;6.600;2023-04-01T12:14:59;0.98;;;0.85;;
51836;SDS011;38941;53.254;6.600;2023-04-01T12:17:27;3.90;;;1.02;;
51836;SDS011;38941;53.254;6.600;2023-04-01T12:24:24;1.52;;;1.10;;
51836;SDS011;38941;53.254;6.600;2023-04-01T12:26:47;1.17;;;0.88;;
51836;SDS011;38941;53.254;6.600;2023-04-01T12:31:42;1.05;;;0.88;;
51836;SDS011;38941;53.254;6.600;2023-04-01T12:35:52;3.00;;;1.02;;
51836;SDS011;38941;53.254;6.600;2023-04-01T12:37:59;1.05;;;0.95;;
51836;SDS011;38941;53.254;6.600;2023-04-01T12:42:50;1.35;;;0.80;;
51836;SDS011;38941;53.254;6.600;2023-04-01T12:54:48;2.35;;;1.10;;
51836;SDS011;38941;53.254;6.600;2023-04-01T13:22:11;1.50;;;0.90;;
51836;SDS011;38941;53.254;6.600;2023-04-01T13:26:35;4.07;;;1.60;;
51836;SDS011;38941;53.254;6.600;2023-04-01T13:42:49;1.48;;;0.75;;
51836;SDS011;38941;53.254;6.600;2023-04-01T13:45:14;0.95;;;0.77;;
51836;SDS011;38941;53.254;6.600;2023-04-01T13:52:08;1.38;;;0.93;;
51836;SDS011;38941;53.254;6.600;2023-04-01T13:56:36;1.75;;;1.40;;
51836;SDS011;38941;53.254;6.600;2023-04-01T13:59:10;0.85;;;0.70;;
51836;SDS011;38941;53.254;6.600;2023-04-01T14:01:32;3.28;;;0.70;;
51836;SDS011;38941;53.254;6.600;2023-04-01T14:22:21;1.15;;;0.75;;
51836;SDS011;38941;53.254;6.600;2023-04-01T14:29:53;0.80;;;0.70;;
51836;SDS011;38941;53.254;6.600;2023-04-01T14:32:15;5.60;;;1.00;;
51836;SDS011;38941;53.254;6.600;2023-04-01T14:37:20;1.85;;;0.70;;
51836;SDS011;38941;53.254;6.600;2023-04-01T14:46:34;2.58;;;1.00;;
51836;SDS011;38941;53.254;6.600;2023-04-01T14:48:51;1.25;;;0.95;;
51836;SDS011;38941;53.254;6.600;2023-04-01T14:51:08;1.25;;;0.82;;
51836;SDS011;38941;53.254;6.600;2023-04-01T14:57:41;1.40;;;0.95;;
51836;SDS011;38941;53.254;6.600;2023-04-01T14:59:49;3.40;;;1.02;;
51836;SDS011;38941;53.254;6.600;2023-04-01T15:02:07;3.45;;;1.50;;
51836;SDS011;38941;53.254;6.600;2023-04-01T15:09:17;2.60;;;1.05;;
51836;SDS011;38941;53.254;6.600;2023-04-01T15:11:24;1.80;;;1.40;;
51836;SDS011;38941;53.254;6.600;2023-04-01T15:20:18;4.13;;;1.70;;
51836;SDS011;38941;53.254;6.600;2023-04-01T15:27:22;3.17;;;1.80;;
51836;SDS011;38941;53.254;6.600;2023-04-01T15:32:05;3.60;;;1.55;;
51836;SDS011;38941;53.254;6.600;2023-04-01T15:34:47;3.03;;;1.50;;
51836;SDS011;38941;53.254;6.600;2023-04-01T15:45:34;4.13;;;2.20;;
51836;SDS011;38941;53.254;6.600;2023-04-01T15:50:26;7.43;;;1.98;;
51836;SDS011;38941;53.254;6.600;2023-04-01T16:06:55;4.25;;;2.45;;
51836;SDS011;38941;53.254;6.600;2023-04-01T16:11:43;4.72;;;2.58;;
51836;SDS011;38941;53.254;6.600;2023-04-01T16:21:10;6.55;;;2.92;;
51836;SDS011;38941;53.254;6.600;2023-04-01T16:37:21;8.60;;;3.08;;
51836;SDS011;38941;53.254;6.600;2023-04-01T16:41:47;9.10;;;2.97;;
51836;SDS011;38941;53.254;6.600;2023-04-01T16:44:26;10.00;;;2.78;;
51836;SDS011;38941;53.254;6.600;2023-04-01T16:50:56;87.15;;;29.15;;
51836;SDS011;38941;53.254;6.600;2023-04-01T16:54:02;77.05;;;27.42;;
51836;SDS011;38941;53.254;6.600;2023-04-01T16:57:56;10.43;;;5.85;;
51836;SDS011;38941;53.254;6.600;2023-04-01T17:00:16;9.30;;;4.45;;
51836;SDS011;38941;53.254;6.600;2023-04-01T17:02:18;6.65;;;4.20;;
51836;SDS011;38941;53.254;6.600;2023-04-01T17:06:49;6.20;;;3.08;;
51836;SDS011;38941;53.254;6.600;2023-04-01T17:09:04;6.85;;;3.35;;
51836;SDS011;38941;53.254;6.600;2023-04-01T17:11:23;6.50;;;3.47;;
51836;SDS011;38941;53.254;6.600;2023-04-01T17:13:37;7.03;;;3.35;;
51836;SDS011;38941;53.254;6.600;2023-04-01T17:18:35;9.30;;;4.22;;
51836;SDS011;38941;53.254;6.600;2023-04-01T17:21:00;12.77;;;4.07;;
51836;SDS011;38941;53.254;6.600;2023-04-01T17:23:11;14.70;;;5.03;;
51836;SDS011;38941;53.254;6.600;2023-04-01T17:27:38;15.07;;;6.20;;
51836;SDS011;38941;53.254;6.600;2023-04-01T17:30:04;12.07;;;4.30;;
51836;SDS011;38941;53.254;6.600;2023-04-01T17:34:31;8.27;;;3.42;;
51836;SDS011;38941;53.254;6.600;2023-04-01T17:36:43;8.30;;;4.22;;
51836;SDS011;38941;53.254;6.600;2023-04-01T17:39:27;11.05;;;3.13;;
51836;SDS011;38941;53.254;6.600;2023-04-01T17:44:18;10.80;;;3.78;;
51836;SDS011;38941;53.254;6.600;2023-04-01T17:48:50;8.27;;;3.50;;
51836;SDS011;38941;53.254;6.600;2023-04-01T17:58:05;8.32;;;3.58;;
51836;SDS011;38941;53.254;6.600;2023-04-01T18:04:40;6.20;;;3.25;;
51836;SDS011;38941;53.254;6.600;2023-04-01T18:16:17;13.95;;;5.97;;
51836;SDS011;38941;53.254;6.600;2023-04-01T18:18:57;25.58;;;13.43;;
51836;SDS011;38941;53.254;6.600;2023-04-01T18:21:05;16.80;;;8.03;;
51836;SDS011;38941;53.254;6.600;2023-04-01T18:23:19;11.83;;;6.60;;
51836;SDS011;38941;53.254;6.600;2023-04-01T18:25:34;12.70;;;5.20;;
51836;SDS011;38941;53.254;6.600;2023-04-01T18:27:44;6.97;;;3.30;;
51836;SDS011;38941;53.254;6.600;2023-04-01T18:29:53;9.05;;;3.58;;
51836;SDS011;38941;53.254;6.600;2023-04-01T18:36:59;8.50;;;4.15;;
51836;SDS011;38941;53.254;6.600;2023-04-01T18:39:07;11.35;;;3.42;;
51836;SDS011;38941;53.254;6.600;2023-04-01T18:43:21;11.70;;;4.68;;
51836;SDS011;38941;53.254;6.600;2023-04-01T18:45:56;13.38;;;4.00;;
51836;SDS011;38941;53.254;6.600;2023-04-01T18:48:03;10.65;;;3.80;;
51836;SDS011;38941;53.254;6.600;2023-04-01T18:50:27;8.48;;;4.28;;
51836;SDS011;38941;53.254;6.600;2023-04-01T18:52:40;8.73;;;3.63;;
51836;SDS011;38941;53.254;6.600;2023-04-01T18:57:03;9.93;;;3.25;;
51836;SDS011;38941;53.254;6.600;2023-04-01T19:02:13;5.45;;;3.05;;
51836;SDS011;38941;53.254;6.600;2023-04-01T19:04:15;8.80;;;3.40;;
51836;SDS011;38941;53.254;6.600;2023-04-01T19:06:51;8.52;;;3.20;;
51836;SDS011;38941;53.254;6.600;2023-04-01T19:08:54;9.02;;;3.25;;
51836;SDS011;38941;53.254;6.600;2023-04-01T19:11:10;11.13;;;3.95;;
51836;SDS011;38941;53.254;6.600;2023-04-01T19:13:41;10.05;;;3.63;;
51836;SDS011;38941;53.254;6.600;2023-04-01T19:18:25;5.70;;;3.28;;
51836;SDS011;38941;53.254;6.600;2023-04-01T19:20:37;7.90;;;3.67;;
51836;SDS011;38941;53.254;6.600;2023-04-01T19:30:58;9.02;;;3.05;;
51836;SDS011;38941;53.254;6.600;2023-04-01T19:46:55;6.70;;;3.17;;
51836;SDS011;38941;53.254;6.600;2023-04-01T19:49:05;5.38;;;2.97;;
51836;SDS011;38941;53.254;6.600;2023-04-01T19:53:59;10.27;;;3.78;;
51836;SDS011;38941;53.254;6.600;2023-04-01T19:56:22;7.28;;;2.95;;
51836;SDS011;38941;53.254;6.600;2023-04-01T19:58:30;7.47;;;3.47;;
51836;SDS011;38941;53.254;6.600;2023-04-01T20:00:46;10.35;;;3.00;;
51836;SDS011;38941;53.254;6.600;2023-04-01T20:05:26;4.80;;;2.72;;
51836;SDS011;38941;53.254;6.600;2023-04-01T20:07:41;7.07;;;2.92;;
51836;SDS011;38941;53.254;6.600;2023-04-01T20:16:23;6.18;;;2.72;;
51836;SDS011;38941;53.254;6.600;2023-04-01T20:19:00;6.10;;;2.83;;
51836;SDS011;38941;53.254;6.600;2023-04-01T20:25:52;7.20;;;2.95;;
51836;SDS011;38941;53.254;6.600;2023-04-01T20:30:41;7.15;;;2.53;;
51836;SDS011;38941;53.254;6.600;2023-04-01T20:37:35;5.68;;;2.88;;
51836;SDS011;38941;53.254;6.600;2023-04-01T20:47:25;9.00;;;2.65;;
51836;SDS011;38941;53.254;6.600;2023-04-01T20:54:24;7.45;;;2.72;;
51836;SDS011;38941;53.254;6.600;2023-04-01T21:11:13;6.57;;;3.00;;
51836;SDS011;38941;53.254;6.600;2023-04-01T21:27:37;4.05;;;2.28;;
51836;SDS011;38941;53.254;6.600;2023-04-01T21:42:23;8.60;;;2.28;;
51836;SDS011;38941;53.254;6.600;2023-04-01T21:56:09;6.60;;;3.38;;
51836;SDS011;38941;53.254;6.600;2023-04-01T22:05:25;9.57;;;2.83;;
51836;SDS011;38941;53.254;6.600;2023-04-01T22:16:54;7.28;;;2.72;;
51836;SDS011;38941;53.254;6.600;2023-04-01T22:23:32;5.13;;;1.92;;
51836;SDS011;38941;53.254;6.600;2023-04-01T22:27:46;8.27;;;1.90;;
51836;SDS011;38941;53.254;6.600;2023-04-01T22:30:03;6.80;;;2.47;;
51836;SDS011;38941;53.254;6.600;2023-04-01T22:34:24;9.45;;;1.80;;
51836;SDS011;38941;53.254;6.600;2023-04-01T22:40:53;3.83;;;1.95;;
51836;SDS011;38941;53.254;6.600;2023-04-01T22:45:28;5.60;;;2.20;;
51836;SDS011;38941;53.254;6.600;2023-04-01T22:47:55;6.75;;;2.17;;
51836;SDS011;38941;53.254;6.600;2023-04-01T22:52:45;3.85;;;2.08;;
51836;SDS011;38941;53.254;6.600;2023-04-01T22:54:50;7.85;;;2.03;;
51836;SDS011;38941;53.254;6.600;2023-04-01T22:57:00;3.85;;;1.58;;
51836;SDS011;38941;53.254;6.600;2023-04-01T23:01:55;8.52;;;2.20;;
51836;SDS011;38941;53.254;6.600;2023-04-01T23:04:00;6.72;;;2.28;;
51836;SDS011;38941;53.254;6.600;2023-04-01T23:06:08;6.40;;;2.45;;
51836;SDS011;38941;53.254;6.600;2023-04-01T23:10:56;7.00;;;1.77;;
51836;SDS011;38941;53.254;6.600;2023-04-01T23:13:00;3.67;;;1.58;;
51836;SDS011;38941;53.254;6.600;2023-04-01T23:15:11;7.82;;;2.25;;
51836;SDS011;38941;53.254;6.600;2023-04-01T23:22:24;6.43;;;1.75;;
51836;SDS011;38941;53.254;6.600;2023-04-01T23:26:40;7.22;;;2.38;;
51836;SDS011;38941;53.254;6.600;2023-04-01T23:28:54;3.88;;;1.90;;
51836;SDS011;38941;53.254;6.600;2023-04-01T23:30:56;5.95;;;2.10;;
51836;SDS011;38941;53.254;6.600;2023-04-01T23:37:25;7.20;;;2.10;;
51836;SDS011;38941;53.254;6.600;2023-04-01T23:39:32;6.90;;;2.20;;
51836;SDS011;38941;53.254;6.600;2023-04-01T23:41:43;4.07;;;1.60;;
51836;SDS011;38941;53.254;6.600;2023-04-01T23:43:54;6.85;;;1.70;;
51836;SDS011;38941;53.254;6.600;2023-04-01T23:46:05;9.70;;;2.20;;